Time;durP1;ratioP1;P1;durP2;ratioP2;P2;SDS_P1;SDS_P2;PMS_P1;PMS_P2;Temp;Humidity;BMP_temperature;BMP_pressure;BME280_temperature;BME280_humidity;BME280_pressure;Samples;Min_cycle;Max_cycle;Signal;HPM_P1;HPM_P2
2024/03/28 00:02:05;;;;;;;22.50;10.48;;;;;;;5.74;92.17;99960.68;1729429;82;21029;-72
2024/03/28 00:04:33;;;;;;;20.45;11.12;;;;;;;5.74;92.05;99966.12;1729669;83;21000;-71
2024/03/28 00:07:02;;;;;;;22.87;11.05;;;;;;;5.75;92.05;99958.30;1729771;83;21028;-72
2024/03/28 00:09:31;;;;;;;18.48;10.50;;;;;;;5.77;92.07;99956.25;1729537;83;21023;-71
2024/03/28 00:11:59;;;;;;;15.95;9.28;;;;;;;5.78;92.02;99948.42;1729582;83;21016;-69
2024/03/28 00:14:27;;;;;;;19.17;9.53;;;;;;;5.79;92.05;99950.13;1729751;83;21047;-72
2024/03/28 00:16:56;;;;;;;15.88;9.18;;;;;;;5.82;91.97;99951.64;1729509;83;21527;-72
2024/03/28 00:19:24;;;;;;;16.12;8.63;;;;;;;5.82;91.89;99944.84;1729752;83;21103;-72
2024/03/28 00:21:54;;;;;;;16.45;8.93;;;;;;;5.83;91.81;99945.17;1727415;83;21044;-71
2024/03/28 00:24:23;;;;;;;15.72;8.80;;;;;;;5.83;91.68;99941.09;1729557;83;21000;-72
2024/03/28 00:26:52;;;;;;;16.42;9.15;;;;;;;5.86;91.64;99939.41;1729582;83;20996;-70
2024/03/28 00:29:20;;;;;;;16.37;9.18;;;;;;;5.88;91.55;99936.00;1729784;83;21074;-71
2024/03/28 00:31:48;;;;;;;16.67;9.23;;;;;;;5.91;91.37;99930.23;1729527;83;22086;-71
2024/03/28 00:34:17;;;;;;;20.55;8.68;;;;;;;5.93;91.24;99941.78;1729650;83;21067;-73
2024/03/28 00:36:45;;;;;;;14.45;8.48;;;;;;;5.93;91.02;99935.83;1729900;83;21062;-72
2024/03/28 00:39:13;;;;;;;15.60;8.00;;;;;;;5.93;90.87;99931.75;1729523;83;21091;-71
2024/03/28 00:41:42;;;;;;;16.07;8.40;;;;;;;5.93;90.79;99929.03;1729680;83;21062;-71
2024/03/28 00:44:10;;;;;;;15.30;7.78;;;;;;;5.96;90.73;99923.75;1729766;83;21059;-71
2024/03/28 00:46:38;;;;;;;14.90;8.33;;;;;;;5.98;90.55;99923.91;1729618;83;21007;-72
2024/03/28 00:49:06;;;;;;;13.65;7.50;;;;;;;5.98;90.35;99924.41;1729578;83;21063;-69
2024/03/28 00:51:35;;;;;;;14.45;7.37;;;;;;;6.00;90.17;99923.72;1729695;83;21087;-72
2024/03/28 00:54:03;;;;;;;16.93;7.80;;;;;;;5.99;89.87;99921.52;1729601;83;21095;-70
2024/03/28 00:56:32;;;;;;;13.28;7.85;;;;;;;6.00;89.73;99919.13;1729770;83;21059;-72
2024/03/28 00:59:00;;;;;;;13.28;7.92;;;;;;;6.01;89.53;99915.90;1729467;82;21536;-72
2024/03/28 01:01:28;;;;;;;14.85;7.78;;;;;;;6.03;89.43;99913.33;1729653;83;21083;-71
2024/03/28 01:03:57;;;;;;;16.37;8.30;;;;;;;6.06;89.29;99913.48;1729656;83;21258;-72
2024/03/28 01:06:26;;;;;;;14.07;8.13;;;;;;;6.10;89.11;99910.73;1666664;84;21038;-72
2024/03/28 01:08:54;;;;;;;15.60;8.45;;;;;;;6.12;88.93;99908.68;1667506;86;21018;-70
2024/03/28 01:11:22;;;;;;;11.45;6.62;;;;;;;6.13;88.65;99905.45;1730087;83;21044;-72
2024/03/28 01:13:51;;;;;;;16.00;8.30;;;;;;;6.13;88.51;99905.45;1729669;83;21041;-70
2024/03/28 01:16:20;;;;;;;14.18;7.90;;;;;;;6.14;88.37;99884.02;1729654;83;21367;-71
2024/03/28 01:18:48;;;;;;;16.20;7.83;;;;;;;6.18;88.22;99884.84;1729757;83;21031;-72
2024/03/28 01:21:17;;;;;;;13.93;7.72;;;;;;;6.18;87.93;99879.39;1729664;83;21067;-73
2024/03/28 01:23:45;;;;;;;12.35;7.12;;;;;;;6.21;87.70;99880.91;1729886;83;21079;-70
2024/03/28 01:26:13;;;;;;;11.88;7.50;;;;;;;6.19;87.41;99885.67;1729843;83;21052;-73
2024/03/28 01:28:44;;;;;;;13.55;7.00;;;;;;;6.18;87.27;99888.06;1729610;83;21040;-71
2024/03/28 01:31:12;;;;;;;11.45;6.87;;;;;;;6.19;87.17;99893.84;1721053;83;21135;-71
2024/03/28 01:33:40;;;;;;;10.85;7.00;;;;;;;6.22;87.02;99892.12;1729456;83;21067;-71
2024/03/28 01:36:10;;;;;;;12.15;7.00;;;;;;;6.23;86.78;99889.73;1639778;85;21213;-72
2024/03/28 01:38:39;;;;;;;13.93;6.47;;;;;;;6.24;86.72;99883.26;1642105;86;21518;-71
2024/03/28 01:41:07;;;;;;;11.45;6.80;;;;;;;6.26;86.63;99885.28;1651554;86;21210;-71
2024/03/28 01:43:39;;;;;;;10.35;6.28;;;;;;;6.27;86.48;99886.97;1651529;87;21088;-71
2024/03/28 01:46:06;;;;;;;10.95;6.42;;;;;;;6.27;86.37;99882.38;1651411;85;21122;-73
2024/03/28 01:48:35;;;;;;;13.35;6.75;;;;;;;6.30;86.27;99887.45;1651804;86;21512;-72
2024/03/28 01:51:04;;;;;;;10.98;6.80;;;;;;;6.33;86.09;99886.24;1651438;87;21056;-72
2024/03/28 01:53:32;;;;;;;10.18;6.58;;;;;;;6.36;85.99;99881.80;1668090;82;21035;-71
2024/03/28 01:56:01;;;;;;;12.70;6.80;;;;;;;6.38;85.79;99882.97;1748981;82;21020;-72
2024/03/28 01:58:30;;;;;;;13.13;6.33;;;;;;;6.38;85.67;99883.81;1749004;81;21095;-72
2024/03/28 02:00:58;;;;;;;12.73;6.78;;;;;;;6.41;85.62;99878.52;1725208;83;21488;-72
2024/03/28 02:03:26;;;;;;;13.53;7.30;;;;;;;6.44;85.34;99875.44;1723083;83;21094;-72
2024/03/28 02:05:54;;;;;;;13.40;7.28;;;;;;;6.46;85.14;99870.66;1722794;83;21070;-72
2024/03/28 02:08:23;;;;;;;13.22;7.12;;;;;;;6.46;84.91;99875.58;1722732;83;21043;-71
2024/03/28 02:10:51;;;;;;;14.20;6.70;;;;;;;6.46;84.78;99871.50;1722790;83;21031;-73
2024/03/28 02:13:20;;;;;;;13.95;6.80;;;;;;;6.48;84.50;99872.16;1722856;83;20991;-73
2024/03/28 02:15:49;;;;;;;14.33;6.92;;;;;;;6.49;84.28;99873.84;1722782;83;21062;-72
2024/03/28 02:18:22;;;;;;;11.65;6.17;;;;;;;6.52;84.08;99872.16;1722909;83;21048;-72
2024/03/28 02:20:51;;;;;;;13.28;6.47;;;;;;;6.53;83.72;99866.20;1722859;83;21077;-71
2024/03/28 02:23:19;;;;;;;9.60;5.97;;;;;;;6.51;83.48;99866.38;1722796;83;21477;-73
2024/03/28 02:25:48;;;;;;;10.80;6.30;;;;;;;6.54;83.30;99863.80;1722813;83;21490;-72
2024/03/28 02:28:16;;;;;;;12.18;6.17;;;;;;;6.57;83.15;99862.08;1678557;83;21414;-72
2024/03/28 02:30:45;;;;;;;13.08;6.60;;;;;;;6.58;82.90;99861.89;1722815;83;21114;-71
2024/03/28 02:33:13;;;;;;;12.15;6.25;;;;;;;6.59;82.62;99860.86;1722785;83;21141;-72
2024/03/28 02:35:41;;;;;;;12.85;6.83;;;;;;;6.59;82.20;99864.94;1723076;81;21089;-72
2024/03/28 02:38:10;;;;;;;11.08;5.75;;;;;;;6.60;82.01;99858.98;1722942;83;21046;-72
2024/03/28 02:40:38;;;;;;;10.30;5.70;;;;;;;6.61;81.82;99857.95;1723081;83;21019;-72
2024/03/28 02:43:07;;;;;;;11.20;6.20;;;;;;;6.63;81.64;99866.26;1722797;82;21057;-71
2024/03/28 02:45:36;;;;;;;11.05;5.60;;;;;;;6.64;81.35;99856.22;1723063;83;21086;-71
2024/03/28 02:48:07;;;;;;;10.90;5.78;;;;;;;6.66;81.21;99859.08;1722910;83;21086;-72
2024/03/28 02:50:36;;;;;;;9.70;6.17;;;;;;;6.67;80.89;99859.41;1722858;83;21022;-74
2024/03/28 02:53:04;;;;;;;8.95;5.62;;;;;;;6.69;80.56;99855.14;1722955;83;21290;-72
2024/03/28 02:55:33;;;;;;;9.55;5.33;;;;;;;6.70;80.37;99849.19;1722795;82;21019;-71
2024/03/28 02:58:01;;;;;;;10.23;5.25;;;;;;;6.72;80.21;99844.39;1722804;83;21498;-73
2024/03/28 03:00:30;;;;;;;8.75;4.95;;;;;;;6.74;79.81;99855.43;1722917;83;21031;-70
2024/03/28 03:03:01;;;;;;;9.08;5.10;;;;;;;6.75;79.57;99846.75;1722865;82;21537;-72
2024/03/28 03:05:29;;;;;;;7.72;4.62;;;;;;;6.76;79.10;99848.44;1722733;83;21019;-72
2024/03/28 03:07:57;;;;;;;7.78;5.05;;;;;;;6.77;78.89;99844.68;1722907;83;21296;-70
2024/03/28 03:10:26;;;;;;;8.33;4.75;;;;;;;6.78;78.55;99845.86;1701706;83;21070;-71
2024/03/28 03:12:54;;;;;;;8.60;4.87;;;;;;;6.78;78.11;99842.29;1722664;83;21054;-73
2024/03/28 03:15:22;;;;;;;8.78;4.62;;;;;;;6.79;78.00;99843.98;1722739;83;21054;-71
2024/03/28 03:17:51;;;;;;;7.95;4.72;;;;;;;6.79;77.72;99833.09;1722760;83;21050;-72
2024/03/28 03:20:19;;;;;;;7.47;4.92;;;;;;;6.79;77.47;99830.37;1722892;83;21066;-71
2024/03/28 03:22:49;;;;;;;9.70;4.45;;;;;;;6.78;77.13;99833.60;1722902;83;20999;-71
2024/03/28 03:25:25;;;;;;;7.83;4.35;;;;;;;6.80;76.88;99834.27;1680314;83;21058;-73
2024/03/28 03:36:14;;;;;;;7.42;3.90;;;;;;;6.85;75.86;99832.34;1722821;82;21548;-72
2024/03/28 03:38:43;;;;;;;9.75;4.22;;;;;;;6.85;75.56;99833.19;1701293;83;21423;-72
2024/03/28 03:41:11;;;;;;;6.22;4.03;;;;;;;6.86;75.41;99826.70;1722695;83;21471;-72
2024/03/28 03:43:40;;;;;;;6.60;3.90;;;;;;;6.86;74.85;99821.26;1722828;83;21050;-71
2024/03/28 03:46:08;;;;;;;11.38;3.83;;;;;;;6.87;74.70;99815.30;1722772;82;21512;-71
2024/03/28 03:48:36;;;;;;;7.10;3.70;;;;;;;6.88;74.67;99814.27;1723305;83;21027;-72
2024/03/28 03:51:05;;;;;;;8.35;4.28;;;;;;;6.90;74.54;99816.28;1722966;83;21038;-72
2024/03/28 03:53:33;;;;;;;7.75;4.10;;;;;;;6.90;74.41;99810.83;1723113;83;21403;-72
2024/03/28 03:56:01;;;;;;;6.85;4.10;;;;;;;6.91;74.42;99806.56;1701455;83;21038;-72
2024/03/28 03:58:30;;;;;;;8.55;4.03;;;;;;;6.92;74.29;99801.96;1722865;83;21030;-71
2024/03/28 04:01:00;;;;;;;9.10;4.00;;;;;;;6.93;73.92;99789.52;1722966;83;21058;-72
2024/03/28 04:03:28;;;;;;;7.20;3.92;;;;;;;6.95;73.85;99790.69;1722849;83;21462;-71
2024/03/28 04:06:01;;;;;;;8.50;4.00;;;;;;;6.96;73.71;99784.20;1722776;83;21504;-73
2024/03/28 04:08:30;;;;;;;6.30;3.83;;;;;;;6.96;73.50;99785.05;1723042;83;21062;-72
2024/03/28 04:10:59;;;;;;;8.10;4.33;;;;;;;6.96;73.09;99786.41;1722953;83;21039;-71
2024/03/28 04:13:28;;;;;;;10.13;4.25;;;;;;;6.97;72.84;99779.09;1722886;83;21147;-72
2024/03/28 04:15:56;;;;;;;9.03;4.37;;;;;;;6.99;72.69;99787.91;1722811;83;21086;-72
2024/03/28 04:18:24;;;;;;;9.63;4.90;;;;;;;6.99;72.52;99779.74;1722699;83;21020;-74
2024/03/28 04:20:54;;;;;;;9.95;4.20;;;;;;;7.00;72.58;99775.98;1722856;83;21426;-72
2024/03/28 04:23:22;;;;;;;9.30;4.30;;;;;;;7.02;72.30;99771.19;1722773;83;21469;-74
2024/03/28 04:25:55;;;;;;;8.80;3.92;;;;;;;7.03;71.82;99773.40;1722849;83;21074;-72
2024/03/28 04:28:24;;;;;;;8.13;3.90;;;;;;;7.05;71.47;99768.61;1723093;83;21042;-74
2024/03/28 04:30:52;;;;;;;8.38;4.25;;;;;;;7.06;71.18;99768.41;1722801;83;21438;-74
2024/03/28 04:33:20;;;;;;;10.03;4.00;;;;;;;7.08;70.79;99770.95;1722848;82;21062;-73
2024/03/28 04:35:49;;;;;;;9.70;3.65;;;;;;;7.08;70.65;99767.70;1721379;83;21044;-72
2024/03/28 04:38:18;;;;;;;8.78;3.58;;;;;;;7.08;70.33;99771.80;1734343;83;21033;-71
2024/03/28 04:40:47;;;;;;;8.75;4.17;;;;;;;7.10;70.14;99762.91;1746878;82;21048;-74
2024/03/28 04:43:15;;;;;;;9.65;4.12;;;;;;;7.12;69.99;99766.29;1734105;83;21101;-72
2024/03/28 04:45:44;;;;;;;7.87;3.95;;;;;;;7.14;69.64;99761.49;1746940;82;21514;-72
2024/03/28 04:48:13;;;;;;;9.20;4.00;;;;;;;7.15;69.38;99767.78;1746870;82;21300;-71
2024/03/28 04:50:41;;;;;;;10.63;3.60;;;;;;;7.16;69.25;99762.17;1705909;83;21510;-72
2024/03/28 04:53:10;;;;;;;7.42;3.60;;;;;;;7.18;69.06;99766.92;1746959;82;21035;-72
2024/03/28 04:55:39;;;;;;;8.53;3.65;;;;;;;7.18;68.75;99760.62;1705689;83;21005;-72
2024/03/28 04:58:07;;;;;;;8.00;3.20;;;;;;;7.19;68.58;99760.95;1718945;82;21087;-72
2024/03/28 05:00:37;;;;;;;6.22;3.58;;;;;;;7.21;68.51;99760.24;1734264;83;21068;-73
2024/03/28 05:03:06;;;;;;;8.78;3.77;;;;;;;7.19;68.20;99753.62;1746964;82;21049;-73
2024/03/28 05:05:34;;;;;;;7.35;3.33;;;;;;;7.21;68.00;99747.98;1734267;83;21029;-73
2024/03/28 05:08:03;;;;;;;7.37;3.25;;;;;;;7.21;67.92;99755.63;1747072;82;21092;-72
2024/03/28 05:10:31;;;;;;;6.50;3.08;;;;;;;7.22;67.56;99745.06;1734244;81;20993;-72
2024/03/28 05:13:00;;;;;;;10.48;3.85;;;;;;;7.24;67.53;99739.42;1746859;82;21049;-70
2024/03/28 05:15:28;;;;;;;6.22;3.20;;;;;;;7.25;67.58;99744.68;1734303;83;21037;-72
2024/03/28 05:17:58;;;;;;;6.50;3.25;;;;;;;7.28;67.54;99731.19;1747057;82;21056;-71
2024/03/28 05:20:26;;;;;;;8.35;3.58;;;;;;;7.30;67.19;99731.84;1746842;82;21084;-72
2024/03/28 05:22:55;;;;;;;13.88;3.77;;;;;;;7.30;67.13;99731.32;1746776;82;21444;-73
2024/03/28 05:25:23;;;;;;;6.62;3.40;;;;;;;7.31;67.09;99729.44;1734464;81;21070;-72
2024/03/28 05:27:52;;;;;;;6.10;3.35;;;;;;;7.33;66.93;99727.37;1747146;82;21088;-73
2024/03/28 05:30:21;;;;;;;7.53;3.60;;;;;;;7.36;66.66;99730.22;1734248;82;21033;-71
2024/03/28 05:32:49;;;;;;;6.95;3.12;;;;;;;7.38;66.64;99726.27;1746981;82;21060;-72
2024/03/28 05:35:17;;;;;;;6.28;3.37;;;;;;;7.39;66.32;99725.75;1734704;81;21033;-72
2024/03/28 05:37:46;;;;;;;6.87;3.45;;;;;;;7.41;66.29;99727.77;1710280;84;21439;-71
2024/03/28 05:40:15;;;;;;;6.33;3.58;;;;;;;7.42;66.08;99727.56;1722849;83;21022;-72
2024/03/28 05:42:43;;;;;;;7.62;3.55;;;;;;;7.44;65.87;99730.94;1722950;83;21035;-72
2024/03/28 05:45:13;;;;;;;10.03;3.70;;;;;;;7.46;65.93;99716.60;1722749;83;21066;-71
2024/03/28 05:47:41;;;;;;;6.55;3.50;;;;;;;7.50;65.76;99731.53;1722802;83;21019;-72
2024/03/28 05:50:10;;;;;;;15.00;3.90;;;;;;;7.52;65.69;99712.25;1722875;83;21054;-72
2024/03/28 05:52:38;;;;;;;9.55;3.35;;;;;;;7.56;65.63;99717.12;1722859;83;21035;-71
2024/03/28 05:55:07;;;;;;;8.23;3.90;;;;;;;7.58;65.22;99708.75;1723059;83;21035;-71
2024/03/28 05:57:35;;;;;;;6.85;3.40;;;;;;;7.58;65.10;99700.57;1722930;83;21090;-72
2024/03/28 06:00:07;;;;;;;7.95;3.22;;;;;;;7.58;64.93;99704.14;1723046;83;21427;-72
2024/03/28 06:02:37;;;;;;;6.65;4.20;;;;;;;7.62;65.02;99701.86;1722861;83;21054;-72
2024/03/28 06:05:07;;;;;;;6.75;3.37;;;;;;;7.64;64.78;99693.81;1722908;83;21082;-73
2024/03/28 06:07:35;;;;;;;7.25;3.75;;;;;;;7.67;64.76;99699.91;1722846;83;21070;-73
2024/03/28 06:10:04;;;;;;;7.05;3.02;;;;;;;7.70;64.62;99697.64;1722760;83;21038;-72
2024/03/28 06:12:33;;;;;;;11.88;4.10;;;;;;;7.70;64.38;99682.64;1722854;83;21035;-73
2024/03/28 06:15:02;;;;;;;5.92;3.17;;;;;;;7.73;64.51;99687.70;1722866;83;21030;-73
2024/03/28 06:17:31;;;;;;;7.42;3.67;;;;;;;7.76;64.72;99688.67;1722830;83;20987;-71
2024/03/28 06:19:59;;;;;;;7.60;3.80;;;;;;;7.81;64.79;99679.41;1702833;83;21062;-72
2024/03/28 06:22:28;;;;;;;9.70;3.67;;;;;;;7.85;64.58;99674.41;1722761;83;21076;-73
2024/03/28 06:24:56;;;;;;;11.18;3.60;;;;;;;7.87;64.69;99681.34;1722888;83;20995;-73
2024/03/28 06:27:25;;;;;;;8.38;3.40;;;;;;;7.92;64.55;99672.56;1722796;83;21015;-70
2024/03/28 06:29:54;;;;;;;9.88;3.40;;;;;;;7.94;64.31;99671.84;1722993;83;21515;-72
2024/03/28 06:32:26;;;;;;;5.97;3.75;;;;;;;7.95;64.17;99670.28;1722905;83;21026;-73
2024/03/28 06:34:58;;;;;;;7.55;4.22;;;;;;;7.99;64.16;99669.89;1722691;83;21050;-73
2024/03/28 06:37:26;;;;;;;12.75;3.85;;;;;;;8.04;64.18;99671.50;1721998;83;21522;-73
2024/03/28 06:39:56;;;;;;;8.73;4.58;;;;;;;8.07;64.13;99669.21;1719152;83;21100;-73
2024/03/28 06:42:24;;;;;;;17.70;5.80;;;;;;;8.12;64.10;99666.73;1716938;83;21045;-73
2024/03/28 06:44:53;;;;;;;10.28;4.58;;;;;;;8.17;63.96;99660.15;1706262;83;21501;-72
2024/03/28 06:47:22;;;;;;;13.22;4.28;;;;;;;8.24;63.93;99646.55;1733613;83;21061;-73
2024/03/28 06:49:51;;;;;;;12.98;5.10;;;;;;;8.32;63.57;99649.63;1715089;83;21009;-74
2024/03/28 06:52:19;;;;;;;8.35;4.00;;;;;;;8.37;63.39;99645.80;1726350;83;21026;-72
2024/03/28 06:54:48;;;;;;;9.33;4.47;;;;;;;8.43;63.33;99645.00;1733587;82;21558;-71
2024/03/28 06:57:20;;;;;;;8.73;3.47;;;;;;;8.48;62.72;99633.82;1726477;82;21006;-73
2024/03/28 06:59:50;;;;;;;37.80;4.75;;;;;;;8.53;62.57;99631.33;1733675;83;21092;-73
2024/03/28 07:02:18;;;;;;;9.85;4.03;;;;;;;8.58;62.36;99628.83;1726417;83;20993;-73
2024/03/28 07:04:47;;;;;;;6.65;3.60;;;;;;;8.66;62.34;99622.87;1733694;83;21037;-73
2024/03/28 07:07:15;;;;;;;11.05;3.30;;;;;;;8.72;61.83;99620.68;1733671;82;21093;-73
2024/03/28 07:09:44;;;;;;;7.85;3.35;;;;;;;8.79;61.49;99622.39;1726395;83;21469;-73
2024/03/28 07:12:13;;;;;;;7.55;3.62;;;;;;;8.85;61.19;99621.56;1715210;83;21108;-72
2024/03/28 07:14:43;;;;;;;5.55;3.20;;;;;;;8.90;61.06;99608.66;1733573;83;21045;-73
2024/03/28 07:17:11;;;;;;;11.00;3.30;;;;;;;8.97;60.92;99605.41;1706005;83;21528;-73
2024/03/28 07:19:40;;;;;;;10.20;3.15;;;;;;;9.06;59.95;99600.07;1733525;82;21049;-73
2024/03/28 07:22:11;;;;;;;8.23;2.83;;;;;;;9.15;59.78;99601.59;1726252;83;21332;-73
2024/03/28 07:24:43;;;;;;;7.90;2.87;;;;;;;9.23;59.32;99595.61;1733592;83;21116;-73
2024/03/28 07:27:12;;;;;;;8.73;2.50;;;;;;;9.30;59.21;99590.98;1733536;83;21118;-73
2024/03/28 07:29:41;;;;;;;6.35;2.80;;;;;;;9.39;58.94;99600.14;1706298;83;21080;-73
2024/03/28 07:32:09;;;;;;;10.28;2.62;;;;;;;9.47;58.64;99583.52;1733648;83;21041;-71
2024/03/28 07:34:37;;;;;;;7.83;2.30;;;;;;;9.55;57.62;99579.73;1726496;82;21002;-71
2024/03/28 07:37:06;;;;;;;8.08;3.02;;;;;;;9.63;57.50;99576.78;1733668;83;21471;-73
2024/03/28 07:39:34;;;;;;;7.17;2.40;;;;;;;9.73;57.57;99581.81;1732678;80;21053;-73
2024/03/28 07:42:06;;;;;;;6.25;2.75;;;;;;;9.83;57.46;99573.52;1677096;84;21515;-72
2024/03/28 07:44:35;;;;;;;10.45;2.58;;;;;;;9.94;57.12;99567.92;1696539;83;21065;-74
2024/03/28 07:47:04;;;;;;;8.13;2.08;;;;;;;10.02;56.74;99570.43;1696487;83;21452;-74
2024/03/28 07:49:33;;;;;;;8.18;2.50;;;;;;;10.10;56.13;99574.30;1696701;83;21731;-74
2024/03/28 07:52:02;;;;;;;7.72;2.20;;;;;;;10.20;56.03;99579.85;1696483;83;21045;-74
2024/03/28 07:54:30;;;;;;;9.10;3.40;;;;;;;10.31;55.74;99570.47;1696844;83;21485;-73
2024/03/28 07:57:01;;;;;;;6.37;2.42;;;;;;;10.44;55.07;99573.72;1696629;83;21065;-74
2024/03/28 07:59:29;;;;;;;8.18;2.70;;;;;;;10.59;54.40;99567.43;1696598;84;21052;-72
2024/03/28 08:01:58;;;;;;;7.78;2.62;;;;;;;10.76;54.11;99569.97;1696617;84;21036;-73
2024/03/28 08:04:26;;;;;;;12.18;2.30;;;;;;;10.94;53.35;99569.23;1696866;84;21092;-73
2024/03/28 08:06:55;;;;;;;9.20;2.67;;;;;;;11.16;52.14;99562.89;1696621;83;21009;-74
2024/03/28 08:09:23;;;;;;;4.10;2.20;;;;;;;11.35;51.18;99561.91;1696847;84;21073;-73
2024/03/28 08:11:51;;;;;;;6.00;2.67;;;;;;;11.50;50.89;99560.19;1696563;84;21037;-74
2024/03/28 08:14:20;;;;;;;5.70;2.47;;;;;;;11.58;50.29;99554.42;1696811;83;21049;-74
2024/03/28 08:16:49;;;;;;;5.37;2.42;;;;;;;11.60;50.04;99560.52;1696781;83;21058;-73
2024/03/28 08:19:17;;;;;;;5.37;2.20;;;;;;;11.63;49.72;99553.75;1667303;84;21084;-73
2024/03/28 08:21:46;;;;;;;7.70;2.12;;;;;;;11.69;50.03;99556.43;1667188;84;21073;-74
2024/03/28 08:24:15;;;;;;;6.70;2.20;;;;;;;11.80;50.09;99552.70;1696720;83;21430;-76
2024/03/28 08:26:43;;;;;;;5.37;1.92;;;;;;;11.90;50.25;99542.04;1696682;84;21069;-74
2024/03/28 08:29:13;;;;;;;5.28;2.20;;;;;;;12.02;50.20;99553.41;1696742;84;21555;-73
2024/03/28 08:31:43;;;;;;;8.88;2.08;;;;;;;12.18;49.72;99553.88;1696843;84;21061;-74
2024/03/28 08:34:11;;;;;;;5.47;1.90;;;;;;;12.29;49.50;99540.75;1696594;83;21489;-73
2024/03/28 08:36:40;;;;;;;4.58;2.00;;;;;;;12.41;49.44;99533.97;1690070;84;21138;-73
2024/03/28 08:39:08;;;;;;;4.87;2.77;;;;;;;12.55;49.18;99539.60;1696692;84;21021;-74
2024/03/28 08:41:37;;;;;;;5.03;2.15;;;;;;;12.73;49.26;99535.44;1711252;82;21101;-74
2024/03/28 08:44:06;;;;;;;6.90;2.60;;;;;;;12.96;48.77;99547.05;1717735;83;21503;-73
2024/03/28 08:46:35;;;;;;;6.22;2.45;;;;;;;13.14;48.49;99537.39;1717805;83;21023;-73
2024/03/28 08:49:03;;;;;;;7.75;2.37;;;;;;;13.26;48.21;99539.66;1717659;83;21015;-74
2024/03/28 08:51:32;;;;;;;7.20;2.75;;;;;;;13.32;48.12;99539.25;1717727;83;21015;-74
2024/03/28 08:54:00;;;;;;;7.95;2.22;;;;;;;13.36;48.09;99539.08;1717889;83;21050;-75
2024/03/28 08:56:29;;;;;;;4.50;2.05;;;;;;;13.35;47.73;99540.16;1738027;81;21038;-76
2024/03/28 08:58:59;;;;;;;5.75;2.33;;;;;;;13.36;48.08;99543.20;1748899;81;21063;-77
2024/03/28 09:01:28;;;;;;;7.45;2.60;;;;;;;13.37;48.18;99535.25;1725214;82;21059;-80
2024/03/28 09:03:56;;;;;;;4.90;2.60;;;;;;;13.42;48.88;99531.25;1721526;83;21090;-79
2024/03/28 09:06:25;;;;;;;7.20;2.50;;;;;;;13.43;48.55;99523.30;1716296;83;21035;-80
2024/03/28 09:08:53;;;;;;;7.60;2.17;;;;;;;13.47;48.57;99511.27;1716899;83;21038;-76
2024/03/28 09:11:22;;;;;;;8.85;2.50;;;;;;;13.52;49.82;99501.23;1718385;82;21092;-75
2024/03/28 09:13:55;;;;;;;6.33;2.62;;;;;;;13.58;49.73;99496.68;1714328;84;21471;-77
2024/03/28 09:16:31;;;;;;;8.75;2.15;;;;;;;13.62;50.00;99494.59;1713945;84;21061;-79
2024/03/28 09:19:01;;;;;;;8.50;2.35;;;;;;;13.59;51.01;99490.94;1717308;82;21059;-80
2024/03/28 09:21:30;;;;;;;5.10;2.02;;;;;;;13.61;51.13;99501.17;1717551;83;21023;-80
2024/03/28 09:23:59;;;;;;;9.68;1.77;;;;;;;13.63;50.09;99496.80;1694468;83;21019;-79
2024/03/28 09:26:28;;;;;;;13.40;4.50;;;;;;;13.63;49.51;99495.42;1717547;83;21090;-79
2024/03/28 09:28:58;;;;;;;5.47;2.37;;;;;;;13.57;49.70;99494.47;1717648;82;21114;-78
2024/03/28 09:31:27;;;;;;;6.42;2.27;;;;;;;13.56;49.49;99484.53;1694272;83;21502;-78
2024/03/28 09:33:56;;;;;;;9.00;2.60;;;;;;;13.53;49.63;99479.52;1717902;83;21087;-78
2024/03/28 09:36:26;;;;;;;8.53;2.55;;;;;;;13.51;49.93;99478.91;1721773;83;21126;-79
2024/03/28 09:38:55;;;;;;;10.48;2.22;;;;;;;13.55;50.27;99489.73;1713409;81;21407;-78
2024/03/28 09:41:29;;;;;;;6.20;2.22;;;;;;;13.64;50.25;99476.45;1708769;83;21059;-80
2024/03/28 09:44:10;;;;;;;8.45;2.37;;;;;;;13.67;50.39;99480.67;1714693;84;21038;-80
2024/03/28 09:46:45;;;;;;;9.10;2.52;;;;;;;13.71;50.63;99476.36;1687413;84;21091;-78
2024/03/28 09:49:11;;;;;;;5.92;2.22;;;;;;;13.75;50.62;99467.92;1713815;83;21035;-78
2024/03/28 09:51:39;;;;;;;8.38;2.45;;;;;;;13.74;50.94;99452.48;1714490;82;21122;-79
2024/03/28 09:54:08;;;;;;;10.68;2.20;;;;;;;13.78;51.36;99453.67;1714593;84;21047;-80
2024/03/28 09:56:37;;;;;;;4.55;1.87;;;;;;;13.84;51.43;99452.16;1714744;84;21063;-78
2024/03/28 09:59:06;;;;;;;8.68;2.52;;;;;;;13.90;51.57;99450.36;1714681;84;21584;-79
2024/03/28 10:01:35;;;;;;;7.62;2.10;;;;;;;13.91;51.68;99440.47;1714363;84;21038;-77
2024/03/28 10:04:15;;;;;;;9.43;3.10;;;;;;;13.97;51.82;99437.28;1685778;84;21581;-80
2024/03/28 10:06:53;;;;;;;7.37;2.47;;;;;;;14.00;51.67;99445.06;1714675;83;21447;-78
2024/03/28 10:09:22;;;;;;;6.65;2.30;;;;;;;14.00;51.91;99442.31;1717838;83;21030;-80
2024/03/28 10:11:54;;;;;;;9.83;2.10;;;;;;;14.00;52.12;99439.55;1720179;82;21035;-79
2024/03/28 10:14:26;;;;;;;9.78;2.10;;;;;;;14.02;52.30;99438.77;1719972;83;21007;-81
2024/03/28 10:17:01;;;;;;;6.53;2.22;;;;;;;14.04;52.47;99432.48;1720192;83;21063;-81
2024/03/28 10:19:33;;;;;;;10.60;2.22;;;;;;;14.10;52.69;99427.91;1720239;83;21539;-80
2024/03/28 10:22:11;;;;;;;5.67;2.00;;;;;;;14.19;52.96;99434.16;1720193;82;21078;-79
2024/03/28 10:24:49;;;;;;;10.00;2.40;;;;;;;14.26;52.90;99435.40;1720067;83;21075;-80
2024/03/28 10:27:23;;;;;;;5.28;1.90;;;;;;;14.29;52.80;99437.66;1720031;82;21130;-79
2024/03/28 10:29:55;;;;;;;4.03;2.02;;;;;;;14.32;52.89;99430.86;1720119;82;21058;-80
2024/03/28 10:32:23;;;;;;;7.62;2.00;;;;;;;14.34;53.34;99425.94;1719958;82;21640;-80
2024/03/28 10:34:54;;;;;;;7.67;2.30;;;;;;;14.37;53.32;99418.02;1706327;84;21088;-79
2024/03/28 10:37:23;;;;;;;7.40;2.10;;;;;;;14.41;53.20;99418.36;1706351;83;21033;-80
2024/03/28 10:39:53;;;;;;;7.55;2.00;;;;;;;14.43;53.35;99409.33;1661376;85;22120;-79
2024/03/28 10:42:22;;;;;;;6.25;2.02;;;;;;;14.45;53.45;99408.00;1684283;83;21077;-79
2024/03/28 10:44:50;;;;;;;6.50;2.15;;;;;;;14.46;53.47;99404.16;1664873;85;21049;-78
2024/03/28 10:47:19;;;;;;;6.75;2.20;;;;;;;14.47;53.49;99400.31;1665028;86;21088;-78
2024/03/28 10:50:05;;;;;;;7.92;2.85;;;;;;;14.50;53.71;99403.12;1664980;85;21063;-79
2024/03/28 10:52:47;;;;;;;10.10;2.77;;;;;;;14.54;53.74;99402.38;1664473;85;21093;-77
2024/03/28 10:55:21;;;;;;;9.23;2.62;;;;;;;14.61;53.75;99398.09;1664820;86;21579;-78
2024/03/28 10:57:50;;;;;;;9.80;2.60;;;;;;;14.68;53.74;99390.49;1664926;84;21042;-78
2024/03/28 11:00:19;;;;;;;10.40;2.65;;;;;;;14.77;53.74;99393.13;1664841;84;21041;-79
2024/03/28 11:02:48;;;;;;;7.08;2.22;;;;;;;14.84;53.37;99388.83;1664853;86;21062;-81
2024/03/28 11:05:18;;;;;;;7.28;2.40;;;;;;;14.83;53.12;99392.67;1665045;85;21117;-81
2024/03/28 11:07:47;;;;;;;8.18;2.72;;;;;;;14.81;53.06;99390.71;1665041;85;21132;-80
2024/03/28 11:10:15;;;;;;;8.55;2.17;;;;;;;14.77;53.15;99367.48;1691332;83;21063;-77
2024/03/28 11:12:45;;;;;;;12.82;2.58;;;;;;;14.74;53.60;99372.11;1692465;85;21458;-80
2024/03/28 11:15:21;;;;;;;10.18;2.47;;;;;;;14.79;53.45;99370.27;1724789;82;21050;-80
2024/03/28 11:17:49;;;;;;;10.93;2.22;;;;;;;14.84;53.55;99359.88;1725343;83;21054;-82
2024/03/28 11:20:19;;;;;;;5.67;2.27;;;;;;;14.85;52.95;99341.70;1725210;83;21003;-81
2024/03/28 11:22:48;;;;;;;7.55;2.33;;;;;;;14.85;53.14;99345.00;1724701;83;21063;-79
2024/03/28 11:25:33;;;;;;;13.40;2.70;;;;;;;14.86;52.92;99341.98;1704506;83;21090;-81
2024/03/28 11:28:12;;;;;;;9.13;2.50;;;;;;;14.84;52.85;99344.70;1724844;82;21034;-81
2024/03/28 11:30:54;;;;;;;8.20;2.67;;;;;;;14.78;53.08;99341.03;1724968;83;21014;-82
2024/03/28 11:33:30;;;;;;;9.78;2.30;;;;;;;14.74;53.48;99336.27;1706780;83;21079;-81
2024/03/28 11:36:02;;;;;;;12.70;2.87;;;;;;;14.76;53.58;99333.55;1724617;82;21202;-81
2024/03/28 11:38:36;;;;;;;21.87;3.27;;;;;;;14.80;53.80;99323.69;1700704;83;21039;-81
2024/03/28 11:41:05;;;;;;;6.97;3.00;;;;;;;14.84;53.58;99323.48;1663823;85;21088;-82
2024/03/28 11:43:36;;;;;;;9.95;3.35;;;;;;;14.85;53.49;99321.55;1717298;82;21087;-80
2024/03/28 11:46:04;;;;;;;10.18;4.08;;;;;;;14.85;53.61;99317.42;1729111;82;21532;-81
2024/03/28 11:48:35;;;;;;;11.20;3.30;;;;;;;14.85;53.74;99318.80;1728993;82;21087;-81
2024/03/28 11:51:06;;;;;;;14.05;3.27;;;;;;;14.85;53.84;99300.87;1729044;83;21052;-84
2024/03/28 11:53:41;;;;;;;8.93;3.08;;;;;;;14.87;54.09;99304.21;1729088;83;21032;-81
2024/03/28 11:56:17;;;;;;;11.85;3.12;;;;;;;14.88;54.22;99307.27;1730506;82;21056;-85